createdAt,value
2022-08-03T00:00:26.430Z,4.07
2022-08-03T00:02:53.663Z,5.80
2022-08-03T00:05:20.838Z,4.15
2022-08-03T00:07:49.396Z,4.22
2022-08-03T00:10:16.941Z,6.80
2022-08-03T00:12:43.965Z,5.90
2022-08-03T00:15:16.542Z,4.22
2022-08-03T00:17:52.518Z,6.25
2022-08-03T00:20:21.600Z,4.65
2022-08-03T00:22:49.008Z,4.07
2022-08-03T00:25:16.101Z,7.28
2022-08-03T00:27:42.965Z,6.22
2022-08-03T00:30:10.271Z,4.45
2022-08-03T00:32:37.145Z,4.72
2022-08-03T00:35:09.830Z,5.57
2022-08-03T00:37:41.601Z,5.55
2022-08-03T00:40:14.562Z,5.18
2022-08-03T00:42:57.960Z,7.07
2022-08-03T00:45:33.638Z,5.35
2022-08-03T00:48:01.540Z,3.85
2022-08-03T00:50:31.105Z,4.80
2022-08-03T00:52:59.722Z,4.28
2022-08-03T00:55:26.763Z,4.65
2022-08-03T00:57:54.135Z,6.10
2022-08-03T01:00:23.724Z,5.70
2022-08-03T01:02:51.669Z,4.30
2022-08-03T01:05:19.469Z,4.35
2022-08-03T01:08:05.388Z,5.78
2022-08-03T01:10:37.008Z,4.75
2022-08-03T01:13:59.170Z,5.43
2022-08-03T01:16:35.998Z,4.35
2022-08-03T01:19:38.011Z,6.18
2022-08-03T01:22:47.467Z,5.82
2022-08-03T01:25:38.576Z,4.72
2022-08-03T01:28:42.822Z,5.63
2022-08-03T01:31:13.105Z,7.55
2022-08-03T01:33:43.959Z,4.65
2022-08-03T01:36:22.872Z,6.28
2022-08-03T01:38:57.865Z,4.65
2022-08-03T01:41:30.758Z,6.90
2022-08-03T01:44:29.477Z,8.02
2022-08-03T01:46:51.300Z,5.95
2022-08-03T01:49:18.478Z,4.47
2022-08-03T01:52:03.352Z,6.80
2022-08-03T01:54:34.708Z,5.70
2022-08-03T01:57:02.944Z,4.40
2022-08-03T01:59:32.488Z,7.82
2022-08-03T02:02:29.892Z,5.63
2022-08-03T02:04:50.475Z,6.32
2022-08-03T02:07:17.741Z,5.32
2022-08-03T02:09:47.127Z,6.70
2022-08-03T02:12:15.168Z,4.43
2022-08-03T02:14:44.367Z,5.10
2022-08-03T02:17:14.110Z,4.82
2022-08-03T02:19:42.858Z,8.45
2022-08-03T02:22:12.917Z,5.22
2022-08-03T02:24:40.811Z,5.32
2022-08-03T02:27:17.716Z,7.10
2022-08-03T02:29:49.212Z,4.88
2022-08-03T02:32:19.193Z,5.15
2022-08-03T02:34:50.507Z,4.90
2022-08-03T02:37:20.031Z,4.68
2022-08-03T02:39:49.158Z,4.47
2022-08-03T02:42:19.873Z,5.57
2022-08-03T02:44:50.200Z,4.95
2022-08-03T02:47:20.976Z,4.50
2022-08-03T02:49:52.079Z,5.25
2022-08-03T02:52:25.554Z,4.07
2022-08-03T02:54:56.409Z,7.05
2022-08-03T02:57:24.831Z,5.13
2022-08-03T02:59:52.912Z,5.13
2022-08-03T03:02:20.571Z,4.72
2022-08-03T03:05:52.162Z,6.82
2022-08-03T03:07:51.224Z,6.35
2022-08-03T03:10:24.776Z,4.53
2022-08-03T03:12:56.013Z,4.68
2022-08-03T03:15:25.705Z,5.72
2022-08-03T03:17:53.640Z,6.00
2022-08-03T03:20:29.726Z,6.82
2022-08-03T03:23:00.798Z,7.65
2022-08-03T03:25:31.716Z,4.90
2022-08-03T03:28:00.353Z,5.07
2022-08-03T03:30:28.350Z,5.00
2022-08-03T03:32:55.527Z,4.93
2022-08-03T03:35:22.457Z,5.32
2022-08-03T03:37:49.355Z,8.15
2022-08-03T03:40:16.332Z,6.57
2022-08-03T03:42:43.271Z,4.57
2022-08-03T03:45:11.113Z,5.15
2022-08-03T03:47:38.193Z,5.07
2022-08-03T03:50:06.882Z,5.88
2022-08-03T03:52:34.426Z,7.47
2022-08-03T03:55:01.851Z,5.65
2022-08-03T03:57:29.529Z,5.47
2022-08-03T03:59:56.791Z,5.30
2022-08-03T04:02:23.859Z,7.00
2022-08-03T04:05:09.195Z,8.38
2022-08-03T04:08:14.520Z,5.60
2022-08-03T04:10:58.565Z,9.00
2022-08-03T04:13:33.591Z,5.82
2022-08-03T04:16:01.321Z,6.05
2022-08-03T04:18:31.658Z,6.05
2022-08-03T04:21:05.934Z,6.97
2022-08-03T04:23:35.598Z,5.72
2022-08-03T04:26:03.960Z,6.18
2022-08-03T04:28:33.934Z,6.13
2022-08-03T04:31:03.386Z,7.25
2022-08-03T04:33:33.549Z,5.78
2022-08-03T04:36:07.023Z,6.65
2022-08-03T04:38:40.695Z,5.30
2022-08-03T04:41:09.151Z,7.03
2022-08-03T04:43:39.591Z,5.53
2022-08-03T04:46:08.368Z,5.50
2022-08-03T04:48:35.704Z,6.43
2022-08-03T04:51:04.504Z,6.88
2022-08-03T04:53:31.492Z,8.70
2022-08-03T04:56:07.445Z,8.43
2022-08-03T04:58:34.416Z,7.72
2022-08-03T05:01:01.419Z,6.72
2022-08-03T05:03:28.327Z,5.55
2022-08-03T05:06:01.879Z,5.82
2022-08-03T05:08:46.503Z,8.25
2022-08-03T05:11:16.970Z,5.45
2022-08-03T05:13:45.091Z,5.50
2022-08-03T05:16:13.897Z,8.25
2022-08-03T05:18:42.070Z,5.30
2022-08-03T05:21:10.663Z,8.57
2022-08-03T05:23:37.920Z,6.65
2022-08-03T05:26:04.930Z,5.70
2022-08-03T05:28:31.894Z,6.00
2022-08-03T05:30:58.786Z,6.07
2022-08-03T05:33:25.682Z,5.88
2022-08-03T05:36:00.591Z,7.47
2022-08-03T05:38:35.113Z,5.80
2022-08-03T05:41:22.096Z,8.52
2022-08-03T05:43:55.201Z,6.88
2022-08-03T05:46:25.090Z,7.32
2022-08-03T05:48:52.453Z,9.15
2022-08-03T05:51:19.535Z,8.35
2022-08-03T05:53:46.634Z,13.07
2022-08-03T05:56:15.994Z,6.00
2022-08-03T05:58:46.255Z,5.47
2022-08-03T06:01:13.505Z,5.95
2022-08-03T06:03:40.665Z,5.35
2022-08-03T06:06:07.671Z,5.57
2022-08-03T06:08:34.969Z,5.28
2022-08-03T06:11:01.962Z,7.35
2022-08-03T06:13:28.836Z,6.32
2022-08-03T06:15:55.752Z,5.45
2022-08-03T06:18:24.523Z,6.10
2022-08-03T06:20:52.398Z,6.93
2022-08-03T06:23:19.972Z,5.20
2022-08-03T06:25:47.421Z,6.00
2022-08-03T06:28:42.421Z,7.93
2022-08-03T06:31:02.042Z,7.38
2022-08-03T06:34:30.933Z,5.07
2022-08-03T06:36:16.190Z,4.55
2022-08-03T06:38:43.114Z,4.88
2022-08-03T06:41:09.990Z,6.30
2022-08-03T06:43:38.019Z,6.60
2022-08-03T06:46:24.810Z,6.63
2022-08-03T06:48:53.372Z,4.18
2022-08-03T06:51:20.306Z,4.65
2022-08-03T06:53:47.236Z,4.32
2022-08-03T06:56:14.159Z,5.13
2022-08-03T06:58:41.160Z,4.22
2022-08-03T07:01:08.061Z,7.10
2022-08-03T07:03:35.016Z,3.83
2022-08-03T07:06:02.589Z,4.65
2022-08-03T07:08:33.766Z,5.05
2022-08-03T07:11:01.632Z,4.60
2022-08-03T07:13:28.659Z,7.57
2022-08-03T07:15:56.611Z,4.80
2022-08-03T07:18:28.329Z,4.30
2022-08-03T07:20:57.820Z,6.47
2022-08-03T07:23:25.629Z,4.90
2022-08-03T07:25:52.979Z,4.47
2022-08-03T07:28:20.575Z,5.28
2022-08-03T07:30:47.707Z,8.00
2022-08-03T07:33:15.279Z,6.75
2022-08-03T07:35:42.326Z,5.68
2022-08-03T07:38:09.252Z,4.68
2022-08-03T07:40:36.243Z,6.45
2022-08-03T07:43:03.832Z,4.63
2022-08-03T07:45:31.657Z,3.67
2022-08-03T07:47:58.685Z,8.85
2022-08-03T07:50:25.829Z,3.33
2022-08-03T07:52:53.495Z,5.07
2022-08-03T07:55:23.184Z,3.42
2022-08-03T07:58:07.648Z,4.70
2022-08-03T08:00:34.799Z,5.30
2022-08-03T08:03:02.438Z,4.10
2022-08-03T08:05:29.590Z,5.13
2022-08-03T08:07:56.774Z,8.07
2022-08-03T08:10:24.039Z,4.05
2022-08-03T08:12:50.948Z,5.53
2022-08-03T08:15:18.000Z,5.30
2022-08-03T08:17:54.007Z,5.10
2022-08-03T08:20:30.718Z,3.25
2022-08-03T08:23:13.923Z,7.75
2022-08-03T08:25:52.368Z,5.38
2022-08-03T08:28:22.362Z,4.45
2022-08-03T08:30:59.153Z,5.10
2022-08-03T08:33:37.289Z,4.18
2022-08-03T08:36:15.381Z,6.63
2022-08-03T08:38:44.623Z,7.65
2022-08-03T08:41:13.295Z,5.90
2022-08-03T08:43:40.419Z,10.82
2022-08-03T08:46:11.842Z,6.65
2022-08-03T08:48:42.129Z,3.10
2022-08-03T08:51:11.487Z,3.83
2022-08-03T08:53:40.408Z,6.82
2022-08-03T08:56:10.294Z,5.13
2022-08-03T08:58:47.038Z,3.50
2022-08-03T09:01:14.016Z,5.00
2022-08-03T09:03:41.766Z,6.57
2022-08-03T09:06:08.687Z,5.60
2022-08-03T09:08:35.759Z,3.33
2022-08-03T09:11:02.664Z,5.40
2022-08-03T09:13:31.081Z,6.18
2022-08-03T09:16:19.047Z,5.40
2022-08-03T09:18:53.136Z,6.32
2022-08-03T09:21:32.971Z,4.88
2022-08-03T09:24:04.727Z,5.28
2022-08-03T09:26:36.066Z,4.47
2022-08-03T09:29:13.232Z,4.65
2022-08-03T09:31:47.001Z,5.35
2022-08-03T09:34:17.117Z,7.13
2022-08-03T09:36:46.976Z,9.57
2022-08-03T09:39:19.400Z,2.70
2022-08-03T09:42:07.353Z,7.78
2022-08-03T09:44:36.861Z,5.78
2022-08-03T09:47:05.009Z,3.55
2022-08-03T09:49:32.843Z,7.03
2022-08-03T09:52:31.919Z,5.80
2022-08-03T09:55:02.223Z,4.13
2022-08-03T09:57:30.812Z,7.35
2022-08-03T10:00:10.481Z,3.92
2022-08-03T10:02:42.154Z,4.72
2022-08-03T10:05:19.658Z,5.53
2022-08-03T10:07:49.091Z,3.65
2022-08-03T10:10:31.740Z,10.05
2022-08-03T10:13:00.848Z,4.05
2022-08-03T10:16:22.448Z,6.68
2022-08-03T10:18:15.657Z,5.90
2022-08-03T10:21:03.250Z,7.75
2022-08-03T10:23:34.664Z,4.88
2022-08-03T10:26:04.893Z,4.47
2022-08-03T10:28:45.311Z,5.05
2022-08-03T10:31:14.023Z,4.45
2022-08-03T10:33:51.532Z,6.13
2022-08-03T10:36:23.224Z,6.70
2022-08-03T10:38:53.080Z,6.28
2022-08-03T10:41:21.908Z,6.00
2022-08-03T10:44:06.816Z,4.80
2022-08-03T10:46:36.051Z,5.53
2022-08-03T10:49:03.925Z,5.95
2022-08-03T10:51:32.348Z,10.25
2022-08-03T10:54:01.726Z,7.45
2022-08-03T10:56:54.488Z,5.00
2022-08-03T10:59:46.622Z,9.85
2022-08-03T11:02:15.059Z,6.93
2022-08-03T11:04:42.832Z,6.47
2022-08-03T11:07:23.378Z,6.97
2022-08-03T11:09:55.783Z,8.15
2022-08-03T11:12:32.202Z,5.57
2022-08-03T11:15:06.629Z,7.68
2022-08-03T11:17:46.788Z,7.75
2022-08-03T11:20:54.027Z,7.22
2022-08-03T11:24:02.703Z,4.70
2022-08-03T11:26:33.374Z,8.38
2022-08-03T11:29:31.625Z,7.97
2022-08-03T11:31:58.822Z,6.90
2022-08-03T11:34:26.084Z,4.07
2022-08-03T11:37:19.696Z,4.95
2022-08-03T11:39:48.572Z,5.30
2022-08-03T11:42:25.489Z,7.30
2022-08-03T11:44:53.077Z,7.20
2022-08-03T11:47:21.967Z,4.70
2022-08-03T11:49:50.560Z,7.18
2022-08-03T11:52:19.426Z,7.22
2022-08-03T11:54:56.872Z,6.25
2022-08-03T11:59:13.118Z,4.50
2022-08-03T12:00:40.525Z,6.70
2022-08-03T12:03:16.304Z,9.20
2022-08-03T12:05:51.568Z,8.73
2022-08-03T12:08:28.581Z,6.03
2022-08-03T12:10:58.043Z,5.55
2022-08-03T12:13:56.888Z,7.40
2022-08-03T12:16:19.628Z,6.05
2022-08-03T12:18:55.199Z,5.90
2022-08-03T12:21:24.709Z,8.55
2022-08-03T12:23:56.436Z,5.00
2022-08-03T12:26:23.500Z,6.03
2022-08-03T12:28:50.642Z,4.93
2022-08-03T12:31:17.664Z,8.40
2022-08-03T12:34:07.952Z,10.00
2022-08-03T12:36:36.361Z,8.13
2022-08-03T12:39:07.289Z,7.45
2022-08-03T12:41:36.798Z,6.65
2022-08-03T12:44:06.019Z,5.38
2022-08-03T12:46:41.676Z,7.82
2022-08-03T12:49:17.263Z,12.43
2022-08-03T12:51:44.161Z,6.80
2022-08-03T12:54:24.254Z,7.38
2022-08-03T12:57:03.722Z,6.75
2022-08-03T12:59:34.833Z,5.47
2022-08-03T13:02:09.335Z,7.47
2022-08-03T13:04:36.926Z,6.65
2022-08-03T13:07:12.663Z,8.30
2022-08-03T13:09:49.564Z,7.97
2022-08-03T13:12:18.858Z,11.52
2022-08-03T13:15:00.619Z,8.52
2022-08-03T13:17:28.313Z,8.03
2022-08-03T13:19:56.300Z,9.60
2022-08-03T13:22:25.591Z,5.70
2022-08-03T13:24:57.477Z,3.67
2022-08-03T13:28:03.893Z,5.20
2022-08-03T13:30:12.854Z,8.80
2022-08-03T13:32:39.791Z,10.75
2022-08-03T13:35:07.877Z,6.47
2022-08-03T13:37:35.488Z,9.43
2022-08-03T13:40:05.617Z,7.88
2022-08-03T13:42:35.666Z,6.85
2022-08-03T13:45:03.750Z,3.55
2022-08-03T13:47:31.029Z,6.40
2022-08-03T13:50:01.049Z,7.68
2022-08-03T13:52:34.689Z,5.32
2022-08-03T13:55:03.757Z,9.02
2022-08-03T13:58:02.821Z,3.90
2022-08-03T14:00:27.365Z,6.75
2022-08-03T14:03:04.086Z,6.30
2022-08-03T14:05:34.490Z,7.60
2022-08-03T14:08:04.760Z,7.18
2022-08-03T14:10:37.448Z,7.60
2022-08-03T14:13:05.499Z,4.65
2022-08-03T14:15:37.954Z,6.05
2022-08-03T14:18:15.660Z,7.78
2022-08-03T14:20:53.027Z,5.07
2022-08-03T14:23:23.068Z,6.85
2022-08-03T14:25:51.650Z,4.68
2022-08-03T14:28:21.062Z,7.97
2022-08-03T14:30:48.686Z,5.05
2022-08-03T14:33:15.864Z,6.70
2022-08-03T14:35:42.848Z,8.00
2022-08-03T14:38:09.692Z,6.30
2022-08-03T14:40:36.644Z,6.10
2022-08-03T14:43:03.701Z,8.77
2022-08-03T14:45:30.620Z,4.72
2022-08-03T14:50:31.010Z,6.15
2022-08-03T14:50:51.014Z,7.45
2022-08-03T14:53:18.994Z,4.93
2022-08-03T14:55:50.801Z,7.22
2022-08-03T15:00:51.179Z,4.13
2022-08-03T15:03:24.616Z,6.85
2022-08-03T15:05:56.825Z,6.70
2022-08-03T15:08:25.652Z,9.07
2022-08-03T15:10:53.644Z,6.65
2022-08-03T15:13:20.902Z,4.80
2022-08-03T15:15:49.595Z,10.57
2022-08-03T15:18:16.604Z,8.18
2022-08-03T15:20:45.478Z,6.57
2022-08-03T15:23:13.926Z,8.70
2022-08-03T15:26:03.612Z,6.13
2022-08-03T15:28:27.962Z,9.25
2022-08-03T15:30:54.903Z,4.50
2022-08-03T15:33:21.820Z,9.77
2022-08-03T15:35:49.781Z,6.82
2022-08-03T15:38:17.162Z,8.52
2022-08-03T15:40:44.198Z,6.20
2022-08-03T15:43:11.432Z,7.75
2022-08-03T15:45:38.343Z,3.85
2022-08-03T15:48:06.220Z,5.45
2022-08-03T15:50:33.203Z,7.53
2022-08-03T15:53:00.169Z,7.53
2022-08-03T15:55:27.219Z,7.80
2022-08-03T15:59:04.480Z,5.57
2022-08-03T16:00:42.056Z,6.75
2022-08-03T16:03:09.405Z,10.23
2022-08-03T16:05:36.727Z,5.20
2022-08-03T16:08:05.622Z,7.35
2022-08-03T16:10:33.979Z,6.90
2022-08-03T16:13:01.044Z,7.82
2022-08-03T16:15:28.372Z,2.38
2022-08-03T16:17:55.414Z,8.18
2022-08-03T16:20:31.171Z,4.22
2022-08-03T16:23:10.725Z,10.70
2022-08-03T16:25:40.223Z,6.35
2022-08-03T16:28:13.496Z,7.38
2022-08-03T16:30:43.403Z,8.00
2022-08-03T16:33:11.363Z,7.55
2022-08-03T16:35:44.339Z,11.05
2022-08-03T16:38:15.223Z,9.50
2022-08-03T16:40:47.004Z,5.30
2022-08-03T16:43:18.149Z,6.22
2022-08-03T16:45:47.345Z,7.28
2022-08-03T16:48:15.586Z,5.85
2022-08-03T16:50:42.904Z,9.82
2022-08-03T16:53:16.438Z,6.30
2022-08-03T16:55:53.253Z,5.80
2022-08-03T16:58:34.779Z,5.25
2022-08-03T17:01:21.600Z,5.88
2022-08-03T17:04:03.207Z,12.50
2022-08-03T17:06:36.553Z,8.55
2022-08-03T17:09:10.497Z,8.85
2022-08-03T17:11:47.345Z,6.57
2022-08-03T17:14:16.428Z,6.47
2022-08-03T17:16:52.099Z,6.72
2022-08-03T17:19:22.998Z,6.82
2022-08-03T17:22:16.504Z,5.95
2022-08-03T17:24:51.486Z,12.05
2022-08-03T17:28:50.362Z,10.85
2022-08-03T17:30:11.939Z,9.63
2022-08-03T17:32:56.617Z,8.65
2022-08-03T17:35:36.544Z,10.05
2022-08-03T17:38:06.725Z,6.38
2022-08-03T17:40:37.920Z,8.13
2022-08-03T17:44:13.313Z,7.85
2022-08-03T17:45:54.854Z,9.45
2022-08-03T17:48:25.245Z,6.82
2022-08-03T17:51:22.420Z,5.50
2022-08-03T17:54:18.393Z,3.70
2022-08-03T17:56:50.105Z,11.63
2022-08-03T17:59:57.085Z,10.73
2022-08-03T18:03:07.397Z,7.53
2022-08-03T18:06:11.909Z,13.13
2022-08-03T18:08:39.371Z,10.98
2022-08-03T18:11:14.901Z,11.15
2022-08-03T18:14:16.293Z,9.98
2022-08-03T18:16:44.904Z,12.02
2022-08-03T18:19:13.800Z,13.48
2022-08-03T18:22:03.132Z,15.65
2022-08-03T18:24:30.330Z,13.93
2022-08-03T18:26:59.056Z,11.70
2022-08-03T18:29:27.526Z,12.85
2022-08-03T18:32:02.794Z,13.00
2022-08-03T18:34:33.897Z,11.60
2022-08-03T18:37:04.377Z,18.90
2022-08-03T18:39:49.271Z,11.15
2022-08-03T18:42:19.485Z,14.23
2022-08-03T18:44:54.009Z,15.88
2022-08-03T18:47:57.052Z,18.85
2022-08-03T18:50:46.492Z,9.43
2022-08-03T18:54:02.974Z,14.27
2022-08-03T18:56:53.082Z,13.32
2022-08-03T18:59:30.289Z,11.18
2022-08-03T19:02:09.412Z,18.38
2022-08-03T19:04:52.757Z,18.23
2022-08-03T19:07:26.284Z,18.02
2022-08-03T19:09:58.294Z,14.85
2022-08-03T19:12:39.609Z,15.50
2022-08-03T19:15:13.011Z,15.05
2022-08-03T19:17:53.172Z,16.00
2022-08-03T19:20:34.857Z,12.00
2022-08-03T19:23:01.938Z,11.57
2022-08-03T19:25:35.362Z,11.70
2022-08-03T19:28:06.029Z,12.75
2022-08-03T19:30:39.666Z,10.20
2022-08-03T19:33:14.919Z,9.95
2022-08-03T19:35:54.969Z,15.57
2022-08-03T19:38:28.454Z,14.77
2022-08-03T19:41:00.880Z,10.48
2022-08-03T19:43:49.308Z,11.00
2022-08-03T19:46:22.643Z,10.00
2022-08-03T19:49:04.794Z,11.02
2022-08-03T19:52:00.785Z,11.02
2022-08-03T19:54:29.685Z,9.40
2022-08-03T19:57:18.231Z,8.52
2022-08-03T19:59:50.116Z,14.73
2022-08-03T20:02:26.481Z,11.45
2022-08-03T20:04:59.926Z,9.65
2022-08-03T20:09:56.487Z,15.73
2022-08-03T20:12:29.353Z,10.45
2022-08-03T20:17:56.328Z,10.48
2022-08-03T20:20:11.583Z,16.80
2022-08-03T20:22:45.462Z,12.82
2022-08-03T20:25:16.284Z,11.63
2022-08-03T20:28:07.764Z,16.88
2022-08-03T20:30:37.260Z,10.02
2022-08-03T20:33:04.433Z,12.90
2022-08-03T20:35:33.008Z,14.93
2022-08-03T20:38:00.366Z,10.23
2022-08-03T20:40:27.759Z,12.07
2022-08-03T20:42:56.043Z,8.93
2022-08-03T20:45:59.479Z,9.57
2022-08-03T20:48:10.439Z,12.18
2022-08-03T20:50:40.847Z,11.15
2022-08-03T20:53:12.147Z,7.82
2022-08-03T20:55:48.015Z,9.05
2022-08-03T20:58:27.161Z,8.68
2022-08-03T21:00:56.798Z,11.27
2022-08-03T21:03:23.872Z,13.45
2022-08-03T21:06:11.310Z,11.48
2022-08-03T21:08:46.937Z,19.48
2022-08-03T21:11:18.901Z,14.88
2022-08-03T21:13:48.654Z,8.98
2022-08-03T21:16:21.673Z,10.25
2022-08-03T21:18:51.315Z,10.88
2022-08-03T21:21:21.293Z,10.63
2022-08-03T21:23:50.971Z,16.33
2022-08-03T21:26:20.451Z,13.40
2022-08-03T21:28:52.098Z,9.13
2022-08-03T21:31:25.134Z,9.53
2022-08-03T21:33:57.811Z,10.38
2022-08-03T21:36:27.733Z,10.23
2022-08-03T21:38:57.433Z,11.02
2022-08-03T21:41:27.382Z,11.27
2022-08-03T21:43:54.410Z,13.10
2022-08-03T21:46:22.674Z,18.02
2022-08-03T21:48:55.557Z,10.90
2022-08-03T21:51:25.371Z,8.80
2022-08-03T21:54:00.346Z,9.48
2022-08-03T21:56:42.979Z,15.07
2022-08-03T21:59:19.093Z,13.50
2022-08-03T22:01:49.021Z,11.05
2022-08-03T22:04:34.405Z,9.18
2022-08-03T22:07:08.534Z,7.15
2022-08-03T22:09:36.488Z,16.00
2022-08-03T22:12:04.339Z,13.50
2022-08-03T22:14:34.431Z,11.98
2022-08-03T22:17:03.360Z,6.78
2022-08-03T22:19:33.356Z,13.60
2022-08-03T22:22:04.571Z,17.67
2022-08-03T22:24:35.182Z,14.10
2022-08-03T22:27:22.359Z,9.90
2022-08-03T22:29:51.032Z,8.68
2022-08-03T22:32:17.998Z,13.25
2022-08-03T22:34:47.380Z,13.68
2022-08-03T22:37:16.783Z,19.05
2022-08-03T22:39:44.660Z,14.20
2022-08-03T22:42:11.798Z,13.13
2022-08-03T22:44:39.164Z,18.02
2022-08-03T22:47:06.485Z,12.90
2022-08-03T22:49:35.235Z,12.05
2022-08-03T22:52:02.895Z,14.63
2022-08-03T22:54:31.954Z,13.32
2022-08-03T22:56:59.642Z,11.73
2022-08-03T22:59:40.545Z,12.30
2022-08-03T23:02:21.174Z,13.57
2022-08-03T23:05:01.516Z,13.00
2022-08-03T23:07:32.229Z,17.55
2022-08-03T23:10:01.695Z,14.25
2022-08-03T23:12:31.246Z,12.85
2022-08-03T23:15:01.748Z,16.10
2022-08-03T23:17:31.360Z,14.80
2022-08-03T23:20:09.458Z,11.50
2022-08-03T23:22:42.886Z,14.50
2022-08-03T23:25:10.367Z,12.75
2022-08-03T23:27:42.291Z,14.82
2022-08-03T23:30:10.948Z,15.93
2022-08-03T23:32:41.582Z,13.75
2022-08-03T23:36:29.295Z,12.85
2022-08-03T23:38:22.039Z,9.73
2022-08-03T23:40:51.239Z,17.02
2022-08-03T23:43:51.290Z,12.05
2022-08-03T23:46:07.744Z,15.23
2022-08-03T23:48:34.918Z,15.45
2022-08-03T23:51:12.842Z,12.85
2022-08-03T23:53:45.968Z,9.80
2022-08-03T23:56:27.969Z,11.95
2022-08-03T23:59:21.644Z,12.82
